createdAt,value
2023-02-11T00:01:30.058Z,96.80
2023-02-11T00:03:59.797Z,96.50
2023-02-11T00:06:30.171Z,96.50
2023-02-11T00:08:59.098Z,96.50
2023-02-11T00:11:30.640Z,96.50
2023-02-11T00:14:01.281Z,97.00
2023-02-11T00:16:31.273Z,96.60
2023-02-11T00:19:00.982Z,96.60
2023-02-11T00:21:29.913Z,96.60
2023-02-11T00:24:00.305Z,96.60
2023-02-11T00:26:32.562Z,96.70
2023-02-11T00:29:01.635Z,96.70
2023-02-11T00:31:33.124Z,96.60
2023-02-11T00:34:01.735Z,96.70
2023-02-11T00:36:31.433Z,96.60
2023-02-11T00:39:00.962Z,96.70
2023-02-11T00:41:31.707Z,96.70
2023-02-11T00:44:01.072Z,96.80
2023-02-11T00:46:29.970Z,96.60
2023-02-11T00:48:58.495Z,96.70
2023-02-11T00:51:27.055Z,96.60
2023-02-11T00:53:55.496Z,96.70
2023-02-11T00:56:24.773Z,96.70
2023-02-11T00:58:54.522Z,96.70
2023-02-11T01:01:23.089Z,96.80
2023-02-11T01:03:52.001Z,96.70
2023-02-11T01:06:20.706Z,96.80
2023-02-11T01:08:49.158Z,96.70
2023-02-11T01:11:20.746Z,96.80
2023-02-11T01:13:50.664Z,96.80
2023-02-11T01:16:21.909Z,96.80
2023-02-11T01:18:50.489Z,96.80
2023-02-11T01:21:19.439Z,96.70
2023-02-11T01:23:48.061Z,96.80
2023-02-11T01:26:16.395Z,96.80
2023-02-11T01:28:44.892Z,96.80
2023-02-11T01:31:13.424Z,96.90
2023-02-11T01:33:43.448Z,96.80
2023-02-11T01:36:13.391Z,96.90
2023-02-11T01:38:42.026Z,96.90
2023-02-11T01:41:14.632Z,96.90
2023-02-11T01:43:45.694Z,96.90
2023-02-11T01:46:33.947Z,96.90
2023-02-11T01:49:08.767Z,97.10
2023-02-11T01:51:41.829Z,97.10
2023-02-11T01:54:33.610Z,97.10
2023-02-11T01:57:21.803Z,97.10
2023-02-11T02:00:01.410Z,97.00
2023-02-11T02:02:49.767Z,97.20
2023-02-11T02:05:30.493Z,97.10
2023-02-11T02:08:08.195Z,97.10
2023-02-11T02:10:39.364Z,97.10
2023-02-11T02:13:07.742Z,97.00
2023-02-11T02:15:37.929Z,97.00
2023-02-11T02:18:23.325Z,97.10
2023-02-11T02:21:54.709Z,97.20
2023-02-11T02:25:01.149Z,97.30
2023-02-11T02:27:43.163Z,97.20
2023-02-11T02:30:54.687Z,97.20
2023-02-11T02:33:39.718Z,97.20
2023-02-11T02:36:16.195Z,97.20
2023-02-11T02:38:54.090Z,97.20
2023-02-11T02:41:26.369Z,97.30
2023-02-11T02:43:55.498Z,97.20
2023-02-11T02:46:27.279Z,97.20
2023-02-11T02:49:00.628Z,97.20
2023-02-11T02:52:17.711Z,97.40
2023-02-11T02:55:13.262Z,97.40
2023-02-11T02:58:01.324Z,97.40
2023-02-11T03:00:38.888Z,97.40
2023-02-11T03:03:30.650Z,97.40
2023-02-11T03:06:06.583Z,97.40
2023-02-11T03:08:40.373Z,97.20
2023-02-11T03:11:10.942Z,97.30
2023-02-11T03:13:41.240Z,97.20
2023-02-11T03:16:13.552Z,97.20
2023-02-11T03:18:47.895Z,97.40
2023-02-11T03:21:18.830Z,97.40
2023-02-11T03:23:52.000Z,97.30
2023-02-11T03:26:29.640Z,97.30
2023-02-11T03:29:06.444Z,97.30
2023-02-11T03:31:42.408Z,97.30
2023-02-11T03:34:17.000Z,97.30
2023-02-11T03:36:51.121Z,97.30
2023-02-11T03:39:30.041Z,97.30
2023-02-11T03:42:01.013Z,97.30
2023-02-11T03:44:36.266Z,97.40
2023-02-11T03:47:09.124Z,97.40
2023-02-11T03:49:40.842Z,97.40
2023-02-11T03:52:12.384Z,97.50
2023-02-11T03:54:43.211Z,97.50
2023-02-11T03:57:11.728Z,97.50
2023-02-11T03:59:55.332Z,97.50
2023-02-11T04:02:25.997Z,97.60
2023-02-11T04:04:54.392Z,97.60
2023-02-11T04:07:24.306Z,97.50
2023-02-11T04:09:52.968Z,97.60
2023-02-11T04:12:21.759Z,97.70
2023-02-11T04:14:50.246Z,97.80
2023-02-11T04:17:19.256Z,97.70
2023-02-11T04:19:47.601Z,97.60
2023-02-11T04:22:15.926Z,97.60
2023-02-11T04:24:45.696Z,97.60
2023-02-11T04:27:14.084Z,97.60
2023-02-11T04:29:42.484Z,97.50
2023-02-11T04:32:11.794Z,97.60
2023-02-11T04:34:40.607Z,97.60
2023-02-11T04:37:09.532Z,97.60
2023-02-11T04:39:37.980Z,97.60
2023-02-11T04:42:07.969Z,97.60
2023-02-11T04:44:36.363Z,97.60
2023-02-11T04:47:04.766Z,97.50
2023-02-11T04:49:33.127Z,97.50
2023-02-11T04:52:01.537Z,97.50
2023-02-11T04:54:29.850Z,97.60
2023-02-11T04:56:58.236Z,97.60
2023-02-11T04:59:28.193Z,97.50
2023-02-11T05:01:56.921Z,97.40
2023-02-11T05:04:25.509Z,97.50
2023-02-11T05:06:54.409Z,97.40
2023-02-11T05:09:23.603Z,97.50
2023-02-11T05:11:51.946Z,97.50
2023-02-11T05:14:20.375Z,97.50
2023-02-11T05:16:50.160Z,97.80
2023-02-11T05:19:18.652Z,97.50
2023-02-11T05:22:01.383Z,97.30
2023-02-11T05:24:30.297Z,97.30
2023-02-11T05:26:58.629Z,97.40
2023-02-11T05:29:26.981Z,97.30
2023-02-11T05:31:56.824Z,97.40
2023-02-11T05:34:25.214Z,97.50
2023-02-11T05:36:53.598Z,97.50
2023-02-11T05:39:21.961Z,97.50
2023-02-11T05:41:50.381Z,97.60
2023-02-11T05:44:18.769Z,97.50
2023-02-11T05:46:47.246Z,97.70
2023-02-11T05:49:18.000Z,97.50
2023-02-11T05:51:46.431Z,97.60
2023-02-11T05:54:15.206Z,97.30
2023-02-11T05:56:44.968Z,97.50
2023-02-11T05:59:15.432Z,97.60
2023-02-11T06:01:44.101Z,97.90
2023-02-11T06:04:12.512Z,97.60
2023-02-11T06:06:42.445Z,97.60
2023-02-11T06:09:11.496Z,97.50
2023-02-11T06:11:40.433Z,97.60
2023-02-11T06:14:09.944Z,97.80
2023-02-11T06:16:38.529Z,97.40
2023-02-11T06:19:07.368Z,97.50
2023-02-11T06:21:43.277Z,97.50
2023-02-11T06:24:14.416Z,97.40
2023-02-11T06:26:42.931Z,97.40
2023-02-11T06:29:11.671Z,97.60
2023-02-11T06:31:41.145Z,97.80
2023-02-11T06:34:10.476Z,97.50
2023-02-11T06:36:41.453Z,97.60
2023-02-11T06:39:13.438Z,97.60
2023-02-11T10:11:35.463Z,98.40
2023-02-11T10:14:23.718Z,98.50
2023-02-11T10:17:05.434Z,98.40
2023-02-11T10:19:49.667Z,98.30
2023-02-11T10:22:26.908Z,98.20
2023-02-11T10:25:00.286Z,98.10
2023-02-11T10:27:34.855Z,98.10
2023-02-11T10:30:16.700Z,98.00
2023-02-11T10:32:51.589Z,98.10
2023-02-11T10:35:23.757Z,98.10
2023-02-11T10:37:52.268Z,98.10
2023-02-11T10:40:24.609Z,98.00
2023-02-11T10:42:56.870Z,98.10
2023-02-11T10:45:34.041Z,98.10
2023-02-11T10:48:04.090Z,98.00
2023-02-11T10:50:35.137Z,98.00
2023-02-11T10:53:21.100Z,97.90
2023-02-11T10:55:55.094Z,98.00
2023-02-11T10:58:30.558Z,97.90
2023-02-11T11:01:01.320Z,97.80
2023-02-11T11:03:37.010Z,97.80
2023-02-11T11:06:08.278Z,97.80
2023-02-11T11:08:44.104Z,97.80
2023-02-11T11:11:15.028Z,97.80
2023-02-11T11:13:58.073Z,97.80
2023-02-11T11:16:29.482Z,97.70
2023-02-11T11:19:17.464Z,97.60
2023-02-11T11:21:48.319Z,97.80
2023-02-11T11:24:22.709Z,97.70
2023-02-11T11:26:54.731Z,97.70
2023-02-11T11:29:30.517Z,97.70
2023-02-11T11:32:05.175Z,97.60
2023-02-11T11:34:37.232Z,97.70
2023-02-11T11:37:13.959Z,97.60
2023-02-11T11:39:42.678Z,97.60
2023-02-11T11:42:27.927Z,97.60
2023-02-11T11:45:01.949Z,97.80
2023-02-11T11:47:45.834Z,98.00
2023-02-11T11:50:32.084Z,97.80
2023-02-11T11:53:06.271Z,97.70
2023-02-11T11:55:40.266Z,97.60
2023-02-11T11:58:17.481Z,97.70
2023-02-11T12:00:57.155Z,97.70
2023-02-11T12:04:04.623Z,97.60
2023-02-11T12:06:42.895Z,98.00
2023-02-11T12:09:23.627Z,97.60
2023-02-11T12:12:26.701Z,97.50
2023-02-11T12:15:14.830Z,97.60
2023-02-11T12:18:10.526Z,97.60
2023-02-11T12:21:00.311Z,97.60
2023-02-11T12:23:42.853Z,97.50
2023-02-11T12:26:17.715Z,97.70
2023-02-11T12:29:02.668Z,97.40
2023-02-11T12:31:56.272Z,97.50
2023-02-11T12:34:50.201Z,97.40
2023-02-11T12:37:41.429Z,97.40
2023-02-11T12:40:19.002Z,97.40
2023-02-11T12:43:16.663Z,97.40
2023-02-11T12:46:03.610Z,97.40
2023-02-11T12:48:58.201Z,97.30
2023-02-11T12:51:41.725Z,97.40
2023-02-11T12:54:53.234Z,97.40
2023-02-11T12:57:27.131Z,97.30
2023-02-11T13:00:03.311Z,97.40
2023-02-11T13:02:44.547Z,97.50
2023-02-11T13:05:27.334Z,97.40
2023-02-11T13:08:03.972Z,97.40
2023-02-11T13:10:37.299Z,97.30
2023-02-11T13:13:27.168Z,97.50
2023-02-11T13:16:01.514Z,97.50
2023-02-11T13:18:51.637Z,97.40
2023-02-11T13:22:06.068Z,97.40
2023-02-11T13:24:45.445Z,97.50
2023-02-11T13:27:37.852Z,97.40
2023-02-11T13:30:28.322Z,97.40
2023-02-11T13:33:23.038Z,97.40
2023-02-11T13:36:23.526Z,97.50
2023-02-11T13:39:07.996Z,97.60
2023-02-11T13:41:42.101Z,97.60
2023-02-11T13:44:29.535Z,97.60
2023-02-11T13:47:02.252Z,97.60
2023-02-11T13:49:40.599Z,97.70
2023-02-11T13:52:24.983Z,97.60
2023-02-11T13:54:56.183Z,97.70
2023-02-11T13:57:42.951Z,97.60
2023-02-11T14:00:53.001Z,97.70
2023-02-11T14:03:52.102Z,97.70
2023-02-11T14:06:42.551Z,97.60
2023-02-11T14:09:41.675Z,97.60
2023-02-11T14:12:36.382Z,97.70
2023-02-11T14:15:37.402Z,97.70
2023-02-11T14:18:40.403Z,97.70
2023-02-11T14:21:14.505Z,97.70
2023-02-11T14:23:43.667Z,97.90
2023-02-11T14:26:35.261Z,97.50
2023-02-11T14:29:14.229Z,97.70
2023-02-11T14:31:52.432Z,97.60
2023-02-11T14:34:45.681Z,97.60
2023-02-11T14:37:24.805Z,97.70
2023-02-11T14:40:04.457Z,97.70
2023-02-11T14:42:33.003Z,97.70
2023-02-11T14:45:10.896Z,97.50
2023-02-11T14:47:44.853Z,97.70
2023-02-11T14:50:23.840Z,97.70
2023-02-11T14:52:53.457Z,97.70
2023-02-11T14:55:31.828Z,97.70
2023-02-11T14:58:15.786Z,97.80
2023-02-11T15:00:57.883Z,97.90
2023-02-11T15:03:29.550Z,97.90
2023-02-11T15:06:01.907Z,97.90
2023-02-11T15:08:31.776Z,97.90
2023-02-11T15:11:02.335Z,97.90
2023-02-11T15:13:33.265Z,97.80
2023-02-11T15:16:08.085Z,98.00
2023-02-11T15:18:42.113Z,98.00
2023-02-11T15:21:12.278Z,97.90
2023-02-11T15:23:44.979Z,97.90
2023-02-11T15:26:22.976Z,97.80
2023-02-11T15:28:52.168Z,98.00
2023-02-11T15:31:24.419Z,97.70
2023-02-11T15:33:54.023Z,98.00
2023-02-11T15:36:28.797Z,97.90
2023-02-11T15:39:35.101Z,98.00
2023-02-11T15:42:26.489Z,98.20
2023-02-11T15:45:29.098Z,98.10
2023-02-11T15:48:10.798Z,98.10
2023-02-11T15:50:42.106Z,98.10
2023-02-11T15:53:28.049Z,98.00
2023-02-11T15:56:05.546Z,98.20
2023-02-11T15:58:41.506Z,98.00
2023-02-11T16:01:11.473Z,98.10
2023-02-11T16:03:42.151Z,98.00
2023-02-11T16:06:22.379Z,98.00
2023-02-11T16:09:05.818Z,98.20
2023-02-11T16:11:36.770Z,98.30
2023-02-11T16:14:24.599Z,98.10
2023-02-11T16:16:56.994Z,98.30
2023-02-11T16:19:28.520Z,98.30
2023-02-11T16:21:59.471Z,98.40
2023-02-11T16:24:32.298Z,98.30
2023-02-11T16:27:02.358Z,98.40
2023-02-11T16:29:33.498Z,98.40
2023-02-11T16:32:11.944Z,98.50
2023-02-11T16:34:40.297Z,98.50
2023-02-11T16:37:09.156Z,98.30
2023-02-11T16:39:39.078Z,98.40
2023-02-11T16:42:07.879Z,98.40
2023-02-11T16:44:36.857Z,98.40
2023-02-11T16:47:09.137Z,98.40
2023-02-11T16:49:42.180Z,98.40
2023-02-11T16:52:16.013Z,98.50
2023-02-11T16:54:45.927Z,98.60
2023-02-11T16:57:17.480Z,98.50
2023-02-11T16:59:46.959Z,98.70
2023-02-11T17:02:23.634Z,98.50
2023-02-11T17:04:54.050Z,99.00
2023-02-11T17:07:23.074Z,98.70
2023-02-11T17:09:52.928Z,98.70
2023-02-11T17:12:21.932Z,98.60
2023-02-11T17:14:50.262Z,98.70
2023-02-11T17:17:18.724Z,98.60
2023-02-11T17:19:47.850Z,98.60
2023-02-11T17:22:16.257Z,98.50
2023-02-11T17:24:44.592Z,98.60
2023-02-11T17:27:15.322Z,98.70
2023-02-11T17:29:43.720Z,98.80
2023-02-11T17:32:12.074Z,98.70
2023-02-11T17:34:40.477Z,98.70
2023-02-11T17:37:09.389Z,98.70
2023-02-11T17:39:38.580Z,98.70
2023-02-11T17:42:08.676Z,98.80
2023-02-11T17:44:38.572Z,98.80
2023-02-11T17:47:07.813Z,98.70
2023-02-11T17:49:36.336Z,98.70
2023-02-11T17:52:05.198Z,98.70
2023-02-11T17:54:33.528Z,98.90
2023-02-11T17:57:01.898Z,98.90
2023-02-11T17:59:35.370Z,98.90
2023-02-11T18:02:06.461Z,98.90
2023-02-11T18:04:35.260Z,99.10
2023-02-11T18:07:03.671Z,98.90
2023-02-11T18:09:32.013Z,98.90
2023-02-11T18:12:00.335Z,98.90
2023-02-11T18:14:28.713Z,98.90
2023-02-11T18:16:57.282Z,98.90
2023-02-11T18:19:30.511Z,98.90
2023-02-11T18:22:00.965Z,99.00
2023-02-11T18:24:29.529Z,99.00
2023-02-11T18:26:58.000Z,99.00
2023-02-11T18:29:26.555Z,99.10
2023-02-11T18:31:57.919Z,99.10
2023-02-11T18:34:27.972Z,99.50
2023-02-11T18:36:57.114Z,99.40
2023-02-11T18:39:26.497Z,99.00
2023-02-11T18:41:56.922Z,99.10
2023-02-11T18:44:25.601Z,99.20
2023-02-11T18:46:54.622Z,99.20
2023-02-11T18:49:23.196Z,99.30
2023-02-11T18:51:53.132Z,99.10
2023-02-11T18:54:22.908Z,99.10
2023-02-11T18:56:51.453Z,99.10
2023-02-11T18:59:19.834Z,99.20
2023-02-11T19:01:48.166Z,99.50
2023-02-11T19:04:19.951Z,99.30
2023-02-11T19:06:50.538Z,99.40
2023-02-11T19:09:22.109Z,99.40
2023-02-11T19:11:50.987Z,99.40
2023-02-11T19:14:25.827Z,99.30
2023-02-11T19:16:57.130Z,99.50
2023-02-11T19:19:29.020Z,99.40
2023-02-11T19:21:58.712Z,99.40
2023-02-11T19:24:30.292Z,99.50
2023-02-11T19:27:01.735Z,99.40
2023-02-11T19:29:32.174Z,99.40
2023-02-11T19:32:00.674Z,99.40
2023-02-11T19:34:32.179Z,99.40
2023-02-11T19:37:01.702Z,99.50
2023-02-11T19:39:31.607Z,99.40
2023-02-11T19:42:00.592Z,99.40
2023-02-11T19:44:29.128Z,99.40
2023-02-11T19:46:57.531Z,99.40
2023-02-11T19:49:26.510Z,99.50
2023-02-11T19:51:58.158Z,99.60
2023-02-11T19:54:29.098Z,99.60
2023-02-11T19:56:59.322Z,99.60
2023-02-11T19:59:28.015Z,99.50
2023-02-11T20:01:57.690Z,99.50
2023-02-11T20:04:26.093Z,99.80
2023-02-11T20:06:54.552Z,99.60
2023-02-11T20:09:22.976Z,99.70
2023-02-11T20:11:51.508Z,99.70
2023-02-11T20:14:25.083Z,99.70
2023-02-11T20:16:55.246Z,99.70
2023-02-11T20:19:23.954Z,99.60
2023-02-11T20:21:55.852Z,99.60
2023-02-11T20:24:29.725Z,99.70
2023-02-11T20:26:58.279Z,99.80
2023-02-11T20:29:31.163Z,99.60
2023-02-11T20:31:59.666Z,99.70
2023-02-11T20:34:28.192Z,99.70
2023-02-11T20:36:56.893Z,99.70
2023-02-11T20:39:27.500Z,99.70
2023-02-11T20:41:56.812Z,99.70
2023-02-11T20:44:27.143Z,99.60
2023-02-11T20:46:55.629Z,99.80
2023-02-11T20:49:28.321Z,99.70
2023-02-11T20:51:58.414Z,99.90
2023-02-11T20:54:27.129Z,99.90
2023-02-11T20:56:57.007Z,99.80
2023-02-11T20:59:26.916Z,99.90
2023-02-11T21:01:57.791Z,99.90
2023-02-11T21:04:29.638Z,99.90
2023-02-11T21:07:00.464Z,99.90
2023-02-11T21:09:32.439Z,99.90
2023-02-11T21:12:01.485Z,99.90
2023-02-11T21:14:32.016Z,99.90
2023-02-11T21:17:00.435Z,99.90
2023-02-11T21:19:31.633Z,99.90
2023-02-11T21:22:01.742Z,99.90
2023-02-11T21:24:30.909Z,99.90
2023-02-11T21:26:59.478Z,99.90
2023-02-11T21:29:27.905Z,99.90
2023-02-11T21:31:57.894Z,99.90
2023-02-11T21:34:26.545Z,99.90
2023-02-11T21:36:54.931Z,99.80
2023-02-11T21:39:23.395Z,99.90
2023-02-11T21:41:52.238Z,99.90
2023-02-11T21:44:22.495Z,99.90
2023-02-11T21:46:54.105Z,99.90
2023-02-11T21:49:27.184Z,99.90
2023-02-11T21:51:58.093Z,99.90
2023-02-11T21:54:31.948Z,99.90
2023-02-11T21:57:03.121Z,99.90
2023-02-11T21:59:32.985Z,99.90
2023-02-11T22:02:01.473Z,99.90
2023-02-11T22:04:31.325Z,99.90
2023-02-11T22:06:59.895Z,99.90
2023-02-11T22:09:28.353Z,99.90
2023-02-11T22:11:57.273Z,99.90
2023-02-11T22:14:25.737Z,99.90
2023-02-11T22:16:54.334Z,99.90
2023-02-11T22:19:23.697Z,99.90
2023-02-11T22:21:53.663Z,99.90
2023-02-11T22:24:22.181Z,99.90
2023-02-11T22:26:50.540Z,99.90
2023-02-11T22:29:19.597Z,99.90
2023-02-11T22:31:48.057Z,99.90
2023-02-11T22:34:16.409Z,99.90
2023-02-11T22:36:46.991Z,99.80
2023-02-11T22:39:18.625Z,99.60
2023-02-11T22:41:48.483Z,99.90
2023-02-11T22:44:19.988Z,99.90
2023-02-11T22:46:48.361Z,99.90
2023-02-11T22:49:18.417Z,99.80
2023-02-11T22:51:47.045Z,99.90
2023-02-11T22:54:18.921Z,99.90
2023-02-11T22:56:51.044Z,99.90
2023-02-11T22:59:20.636Z,99.90
2023-02-11T23:01:50.051Z,99.90
2023-02-11T23:04:19.316Z,99.90
2023-02-11T23:06:49.359Z,99.90
2023-02-11T23:09:19.124Z,99.90
2023-02-11T23:11:49.421Z,99.90
2023-02-11T23:14:17.741Z,99.90
2023-02-11T23:16:46.137Z,99.90
2023-02-11T23:19:14.488Z,99.90
2023-02-11T23:21:42.794Z,99.80
2023-02-11T23:24:16.442Z,99.90
2023-02-11T23:26:47.340Z,99.90
2023-02-11T23:29:15.720Z,99.90
2023-02-11T23:31:46.497Z,99.90
2023-02-11T23:34:20.386Z,99.90
2023-02-11T23:36:48.683Z,99.90
2023-02-11T23:39:17.388Z,99.90
2023-02-11T23:41:47.885Z,99.90
2023-02-11T23:44:16.194Z,99.90
2023-02-11T23:46:44.645Z,99.90
2023-02-11T23:49:13.110Z,99.90
2023-02-11T23:51:41.412Z,99.80
2023-02-11T23:54:11.972Z,99.90
2023-02-11T23:56:42.273Z,99.90
2023-02-11T23:59:12.000Z,99.90
